createdAt,value
2022-11-30T00:01:37.448Z,41.30
2022-11-30T00:04:06.050Z,38.50
2022-11-30T00:06:34.403Z,37.90
2022-11-30T00:09:02.796Z,42.10
2022-11-30T00:11:31.264Z,35.50
2022-11-30T00:14:00.527Z,40.80
2022-11-30T00:16:29.300Z,38.10
2022-11-30T00:18:57.975Z,38.70
2022-11-30T00:21:26.333Z,38.20
2022-11-30T00:23:55.091Z,37.30
2022-11-30T00:26:23.674Z,38.20
2022-11-30T00:28:51.948Z,35.40
2022-11-30T00:31:21.195Z,39.40
2022-11-30T00:33:50.165Z,36.60
2022-11-30T00:36:22.039Z,38.90
2022-11-30T00:38:52.682Z,36.40
2022-11-30T00:41:20.902Z,39.60
2022-11-30T00:43:49.254Z,37.60
2022-11-30T00:46:18.156Z,43.70
2022-11-30T00:48:46.428Z,40.60
2022-11-30T00:51:15.088Z,39.90
2022-11-30T00:53:43.721Z,36.30
2022-11-30T00:56:11.915Z,39.40
2022-11-30T00:58:40.871Z,38.20
2022-11-30T01:01:09.840Z,38.70
2022-11-30T01:03:38.108Z,39.00
2022-11-30T01:06:09.297Z,38.20
2022-11-30T01:08:38.232Z,37.20
2022-11-30T01:11:12.528Z,35.40
2022-11-30T01:13:41.319Z,35.50
2022-11-30T01:16:16.487Z,40.40
2022-11-30T01:18:46.463Z,37.50
2022-11-30T01:21:17.959Z,38.30
2022-11-30T01:23:47.433Z,39.90
2022-11-30T01:26:17.023Z,36.50
2022-11-30T01:28:49.761Z,34.80
2022-11-30T01:31:19.520Z,35.00
2022-11-30T01:33:53.169Z,37.60
2022-11-30T01:36:25.796Z,38.40
2022-11-30T01:38:57.169Z,39.10
2022-11-30T01:41:28.837Z,41.20
2022-11-30T01:44:07.804Z,35.50
2022-11-30T01:46:45.215Z,37.50
2022-11-30T01:49:29.155Z,38.40
2022-11-30T01:52:03.578Z,36.60
2022-11-30T01:54:37.980Z,37.50
2022-11-30T01:57:20.097Z,36.60
2022-11-30T01:59:52.160Z,34.90
2022-11-30T02:04:51.273Z,37.30
2022-11-30T02:07:19.771Z,40.50
2022-11-30T02:09:48.325Z,35.10
2022-11-30T02:12:58.329Z,37.50
2022-11-30T02:15:31.633Z,37.10
2022-11-30T02:18:11.872Z,36.20
2022-11-30T02:20:43.127Z,37.60
2022-11-30T02:23:41.880Z,34.60
2022-11-30T02:26:51.405Z,37.80
2022-11-30T02:29:29.042Z,41.40
2022-11-30T02:32:06.366Z,39.50
2022-11-30T02:34:37.911Z,39.30
2022-11-30T02:37:09.586Z,40.20
2022-11-30T02:39:37.858Z,37.90
2022-11-30T02:42:14.029Z,38.40
2022-11-30T02:44:47.996Z,35.20
2022-11-30T02:47:37.759Z,39.20
2022-11-30T02:50:28.535Z,33.90
2022-11-30T02:52:57.739Z,33.90
2022-11-30T02:55:28.592Z,36.40
2022-11-30T02:57:56.877Z,33.50
2022-11-30T03:00:25.486Z,38.20
2022-11-30T03:02:53.941Z,35.60
2022-11-30T03:05:22.402Z,35.80
2022-11-30T03:07:50.913Z,33.40
2022-11-30T03:10:19.465Z,33.50
2022-11-30T03:12:47.760Z,33.00
2022-11-30T03:15:16.153Z,36.10
2022-11-30T03:17:44.602Z,36.20
2022-11-30T03:20:13.055Z,34.80
2022-11-30T03:22:41.464Z,34.10
2022-11-30T03:25:09.892Z,35.80
2022-11-30T03:27:38.127Z,42.80
2022-11-30T03:30:07.284Z,34.40
2022-11-30T03:32:35.668Z,37.90
2022-11-30T03:35:04.113Z,34.50
2022-11-30T03:37:32.661Z,36.40
2022-11-30T03:40:01.066Z,38.10
2022-11-30T03:42:29.518Z,34.80
2022-11-30T03:44:57.982Z,33.30
2022-11-30T03:47:26.368Z,36.40
2022-11-30T03:49:54.518Z,34.30
2022-11-30T03:52:22.860Z,34.30
2022-11-30T03:54:51.612Z,33.70
2022-11-30T03:57:19.810Z,39.70
2022-11-30T03:59:48.563Z,35.20
2022-11-30T04:02:17.266Z,34.70
2022-11-30T04:04:45.880Z,34.20
2022-11-30T04:07:14.737Z,34.30
2022-11-30T04:09:43.447Z,34.80
2022-11-30T04:12:11.663Z,34.90
2022-11-30T04:14:39.868Z,34.20
2022-11-30T04:17:08.438Z,34.90
2022-11-30T04:19:37.002Z,34.90
2022-11-30T04:22:05.383Z,34.80
2022-11-30T04:24:33.885Z,31.90
2022-11-30T04:27:02.183Z,34.50
2022-11-30T04:29:31.150Z,33.50
2022-11-30T04:31:59.598Z,39.00
2022-11-30T04:34:28.737Z,34.50
2022-11-30T04:37:00.314Z,32.80
2022-11-30T04:39:29.257Z,32.60
2022-11-30T04:41:57.543Z,36.70
2022-11-30T04:44:25.829Z,33.80
2022-11-30T04:46:54.246Z,37.70
2022-11-30T04:49:22.694Z,37.00
2022-11-30T04:51:51.114Z,36.10
2022-11-30T04:54:19.349Z,35.90
2022-11-30T04:56:47.820Z,36.20
2022-11-30T04:59:16.381Z,33.30
2022-11-30T05:01:44.767Z,34.40
2022-11-30T05:04:13.395Z,35.40
2022-11-30T05:06:41.643Z,36.30
2022-11-30T05:09:10.092Z,34.30
2022-11-30T05:11:38.439Z,34.00
2022-11-30T05:14:06.748Z,35.00
2022-11-30T05:16:35.513Z,34.70
2022-11-30T05:19:04.027Z,35.10
2022-11-30T05:21:32.273Z,39.10
2022-11-30T05:24:00.841Z,34.00
2022-11-30T05:26:29.485Z,33.50
2022-11-30T05:28:57.684Z,35.00
2022-11-30T05:31:26.240Z,32.70
2022-11-30T05:33:54.797Z,38.60
2022-11-30T05:36:23.428Z,33.00
2022-11-30T05:38:51.726Z,39.80
2022-11-30T05:41:20.506Z,35.10
2022-11-30T05:43:48.969Z,32.40
2022-11-30T05:46:17.400Z,35.60
2022-11-30T05:48:45.837Z,34.70
2022-11-30T05:51:16.440Z,37.10
2022-11-30T05:53:45.680Z,34.80
2022-11-30T05:56:19.952Z,41.50
2022-11-30T05:58:49.139Z,37.10
2022-11-30T06:01:22.949Z,36.30
2022-11-30T06:03:52.056Z,35.50
2022-11-30T06:06:21.033Z,36.50
2022-11-30T06:08:52.720Z,34.20
2022-11-30T06:11:20.986Z,34.70
2022-11-30T06:13:49.262Z,37.30
2022-11-30T06:16:17.744Z,38.60
2022-11-30T06:18:46.203Z,42.10
2022-11-30T06:21:15.144Z,39.00
2022-11-30T06:23:45.776Z,38.40
2022-11-30T06:26:14.253Z,38.20
2022-11-30T06:28:46.714Z,36.30
2022-11-30T06:31:17.702Z,39.30
2022-11-30T06:33:46.028Z,38.10
2022-11-30T06:36:14.307Z,38.10
2022-11-30T06:38:42.983Z,35.90
2022-11-30T06:41:12.689Z,39.10
2022-11-30T06:43:41.265Z,37.30
2022-11-30T06:46:10.515Z,35.50
2022-11-30T06:48:39.114Z,33.90
2022-11-30T06:51:09.365Z,41.20
2022-11-30T06:53:38.464Z,37.40
2022-11-30T06:56:10.343Z,36.40
2022-11-30T06:58:40.113Z,35.40
2022-11-30T07:01:11.719Z,36.10
2022-11-30T07:03:41.829Z,37.60
2022-11-30T07:06:12.838Z,34.90
2022-11-30T07:08:42.552Z,37.00
2022-11-30T07:11:12.766Z,38.10
2022-11-30T07:13:41.108Z,40.30
2022-11-30T07:16:11.871Z,36.90
2022-11-30T07:18:40.427Z,34.50
2022-11-30T07:21:10.187Z,37.20
2022-11-30T07:23:57.755Z,36.50
2022-11-30T07:26:26.014Z,36.60
2022-11-30T07:28:55.537Z,39.40
2022-11-30T07:31:33.872Z,41.30
2022-11-30T07:34:08.187Z,37.50
2022-11-30T07:36:37.119Z,35.30
2022-11-30T07:39:05.538Z,38.70
2022-11-30T07:41:33.746Z,38.20
2022-11-30T07:44:07.913Z,41.20
2022-11-30T07:46:37.514Z,39.50
2022-11-30T07:49:07.472Z,38.40
2022-11-30T07:51:36.593Z,38.40
2022-11-30T07:54:05.552Z,42.50
2022-11-30T07:56:33.878Z,40.80
2022-11-30T07:59:03.276Z,39.90
2022-11-30T08:01:33.048Z,40.30
2022-11-30T08:04:01.733Z,39.00
2022-11-30T08:06:31.580Z,37.10
2022-11-30T08:09:02.586Z,39.10
2022-11-30T08:11:34.181Z,36.30
2022-11-30T08:14:04.205Z,35.80
2022-11-30T08:16:38.222Z,40.30
2022-11-30T08:19:06.782Z,35.60
2022-11-30T08:21:35.089Z,41.90
2022-11-30T08:24:03.511Z,37.60
2022-11-30T08:26:33.902Z,38.50
2022-11-30T08:29:02.344Z,40.50
2022-11-30T08:31:33.590Z,39.90
2022-11-30T08:34:08.029Z,41.90
2022-11-30T08:36:36.889Z,37.00
2022-11-30T08:39:07.822Z,41.30
2022-11-30T08:41:36.477Z,39.10
2022-11-30T08:44:05.631Z,42.90
2022-11-30T08:46:50.715Z,41.50
2022-11-30T08:49:23.492Z,42.20
2022-11-30T08:54:45.698Z,43.10
2022-11-30T08:57:20.544Z,40.40
2022-11-30T08:59:49.273Z,38.90
2022-11-30T09:02:19.649Z,40.30
2022-11-30T09:05:09.385Z,39.80
2022-11-30T09:07:38.060Z,43.80
2022-11-30T09:10:07.210Z,41.40
2022-11-30T09:12:37.356Z,43.20
2022-11-30T09:15:07.564Z,45.90
2022-11-30T09:17:36.756Z,43.90
2022-11-30T09:20:05.899Z,43.00
2022-11-30T09:22:34.538Z,45.50
2022-11-30T09:25:03.054Z,44.70
2022-11-30T09:27:33.068Z,46.60
2022-11-30T09:30:02.649Z,45.40
2022-11-30T09:32:31.014Z,42.60
2022-11-30T09:34:59.671Z,53.10
2022-11-30T09:37:28.406Z,44.00
2022-11-30T09:39:56.994Z,42.10
2022-11-30T09:42:39.180Z,42.30
2022-11-30T09:45:19.278Z,41.20
2022-11-30T09:48:06.556Z,46.30
2022-11-30T09:50:41.737Z,43.00
2022-11-30T09:53:51.686Z,45.00
2022-11-30T09:56:32.211Z,42.70
2022-11-30T09:59:26.717Z,42.80
2022-11-30T10:01:57.286Z,50.50
2022-11-30T10:04:30.641Z,42.80
2022-11-30T10:07:05.009Z,42.90
2022-11-30T10:10:30.984Z,46.10
2022-11-30T10:13:27.966Z,44.80
2022-11-30T10:16:18.915Z,42.90
2022-11-30T10:19:38.774Z,36.10
2022-11-30T10:22:22.252Z,42.60
2022-11-30T10:24:54.020Z,43.90
2022-11-30T10:27:45.673Z,45.00
2022-11-30T10:30:17.853Z,40.90
2022-11-30T10:32:51.362Z,40.40
2022-11-30T10:35:38.411Z,40.50
2022-11-30T10:38:24.363Z,42.30
2022-11-30T10:41:03.646Z,39.50
2022-11-30T10:43:38.668Z,42.10
2022-11-30T10:46:26.156Z,42.40
2022-11-30T10:49:13.899Z,44.10
2022-11-30T10:51:45.073Z,39.60
2022-11-30T10:54:22.339Z,43.50
2022-11-30T10:56:50.669Z,40.50
2022-11-30T10:59:24.599Z,38.50
2022-11-30T11:01:53.648Z,39.80
2022-11-30T11:04:24.692Z,38.20
2022-11-30T11:06:56.529Z,40.50
2022-11-30T11:09:39.977Z,39.40
2022-11-30T11:12:16.193Z,42.60
2022-11-30T11:14:44.919Z,37.30
2022-11-30T11:17:19.551Z,40.00
2022-11-30T11:19:49.920Z,39.90
2022-11-30T11:22:25.778Z,36.70
2022-11-30T11:25:12.177Z,42.00
2022-11-30T11:27:44.916Z,41.10
2022-11-30T11:30:29.049Z,40.70
2022-11-30T11:33:04.827Z,36.70
2022-11-30T11:35:49.283Z,37.60
2022-11-30T11:38:27.927Z,38.00
2022-11-30T11:41:05.854Z,42.20
2022-11-30T11:43:56.301Z,41.80
2022-11-30T11:46:25.304Z,43.00
2022-11-30T11:48:58.575Z,47.30
2022-11-30T11:51:32.250Z,44.20
2022-11-30T11:54:18.553Z,46.00
2022-11-30T11:56:48.084Z,38.40
2022-11-30T11:59:32.497Z,45.30
2022-11-30T12:02:07.560Z,42.30
2022-11-30T12:04:57.997Z,43.80
2022-11-30T12:07:53.836Z,41.20
2022-11-30T12:13:22.405Z,40.90
2022-11-30T12:16:08.524Z,41.60
2022-11-30T12:19:14.658Z,37.60
2022-11-30T12:22:27.755Z,46.00
2022-11-30T12:25:20.224Z,40.90
2022-11-30T12:28:02.001Z,42.30
2022-11-30T12:30:36.376Z,45.40
2022-11-30T12:33:30.740Z,46.80
2022-11-30T12:36:24.233Z,43.90
2022-11-30T12:39:04.843Z,50.60
2022-11-30T12:41:51.600Z,45.10
2022-11-30T12:44:42.099Z,42.40
2022-11-30T12:47:38.605Z,43.40
2022-11-30T12:50:23.239Z,43.50
2022-11-30T12:52:54.613Z,42.90
2022-11-30T12:55:35.150Z,41.90
2022-11-30T12:58:31.073Z,45.50
2022-11-30T13:01:11.379Z,45.00
2022-11-30T13:03:46.995Z,45.30
2022-11-30T13:06:27.288Z,43.50
2022-11-30T13:09:02.956Z,43.30
2022-11-30T13:11:38.343Z,44.10
2022-11-30T13:14:14.988Z,43.20
2022-11-30T13:16:44.579Z,46.60
2022-11-30T13:19:35.935Z,48.10
2022-11-30T13:22:12.390Z,42.40
2022-11-30T13:24:47.814Z,41.10
2022-11-30T13:27:41.107Z,42.80
2022-11-30T13:30:18.796Z,40.80
2022-11-30T13:33:02.611Z,38.10
2022-11-30T13:35:31.415Z,41.70
2022-11-30T13:38:34.734Z,40.00
2022-11-30T13:43:27.811Z,41.60
2022-11-30T13:46:13.573Z,40.40
2022-11-30T13:48:44.052Z,41.80
2022-11-30T13:51:13.393Z,41.40
2022-11-30T13:53:41.723Z,41.00
2022-11-30T13:56:19.005Z,42.70
2022-11-30T13:59:24.691Z,38.00
2022-11-30T14:02:14.443Z,44.50
2022-11-30T14:04:47.781Z,42.80
2022-11-30T14:07:39.318Z,41.70
2022-11-30T14:10:26.383Z,42.80
2022-11-30T14:13:04.952Z,43.10
2022-11-30T14:15:40.756Z,40.80
2022-11-30T14:18:09.401Z,39.20
2022-11-30T14:20:50.672Z,39.90
2022-11-30T14:23:55.637Z,39.80
2022-11-30T14:26:28.766Z,39.70
2022-11-30T14:29:09.981Z,39.20
2022-11-30T14:32:07.829Z,39.40
2022-11-30T14:35:02.567Z,37.70
2022-11-30T14:37:41.802Z,34.20
2022-11-30T14:40:19.144Z,40.40
2022-11-30T14:42:53.522Z,37.00
2022-11-30T14:45:28.056Z,36.40
2022-11-30T14:48:16.901Z,36.50
2022-11-30T14:50:57.512Z,39.80
2022-11-30T14:53:33.420Z,40.30
2022-11-30T14:56:29.507Z,38.00
2022-11-30T14:59:05.553Z,39.00
2022-11-30T15:01:34.267Z,39.20
2022-11-30T15:04:11.785Z,39.80
2022-11-30T15:06:41.559Z,43.30
2022-11-30T15:09:20.040Z,39.10
2022-11-30T15:11:51.322Z,42.00
2022-11-30T15:14:20.048Z,42.80
2022-11-30T15:16:55.637Z,39.80
2022-11-30T15:19:30.437Z,43.30
2022-11-30T15:21:59.752Z,40.70
2022-11-30T15:24:29.924Z,39.00
2022-11-30T15:27:11.071Z,40.00
2022-11-30T15:29:44.089Z,38.00
2022-11-30T15:32:18.688Z,40.20
2022-11-30T15:34:56.281Z,37.30
2022-11-30T15:37:34.303Z,40.00
2022-11-30T15:40:05.894Z,42.40
2022-11-30T15:42:43.874Z,43.40
2022-11-30T15:45:29.921Z,45.70
2022-11-30T15:48:00.830Z,42.90
2022-11-30T15:50:29.471Z,43.90
2022-11-30T15:53:00.197Z,41.40
2022-11-30T15:55:46.101Z,39.30
2022-11-30T15:58:29.374Z,40.60
2022-11-30T16:01:21.075Z,41.40
2022-11-30T16:06:45.047Z,41.20
2022-11-30T16:09:32.270Z,40.50
2022-11-30T16:12:02.509Z,38.70
2022-11-30T16:14:31.168Z,39.60
2022-11-30T16:17:02.882Z,38.90
2022-11-30T16:19:36.007Z,43.30
2022-11-30T16:22:04.308Z,42.30
2022-11-30T16:24:32.474Z,40.30
2022-11-30T16:27:11.182Z,43.50
2022-11-30T16:29:39.334Z,44.50
2022-11-30T16:32:13.896Z,41.60
2022-11-30T16:34:42.090Z,50.60
2022-11-30T16:37:11.296Z,47.50
2022-11-30T16:39:39.763Z,44.10
2022-11-30T16:42:12.048Z,49.90
2022-11-30T16:44:40.896Z,50.00
2022-11-30T16:47:09.524Z,52.90
2022-11-30T16:49:38.543Z,49.10
2022-11-30T16:52:15.693Z,44.80
2022-11-30T16:54:44.092Z,43.00
2022-11-30T16:57:12.836Z,42.60
2022-11-30T16:59:41.208Z,49.30
2022-11-30T17:02:20.211Z,44.30
2022-11-30T17:04:48.962Z,45.20
2022-11-30T17:07:17.309Z,43.70
2022-11-30T17:09:45.736Z,45.10
2022-11-30T17:12:14.660Z,44.70
2022-11-30T17:14:42.904Z,43.70
2022-11-30T17:17:11.113Z,45.10
2022-11-30T17:19:40.185Z,49.80
2022-11-30T17:22:08.492Z,47.90
2022-11-30T17:24:36.660Z,45.10
2022-11-30T17:27:06.076Z,46.30
2022-11-30T17:29:34.572Z,44.80
2022-11-30T17:32:02.845Z,48.00
2022-11-30T17:34:31.469Z,48.50
2022-11-30T17:37:00.027Z,48.20
2022-11-30T17:39:28.267Z,49.00
2022-11-30T17:41:57.037Z,47.10
2022-11-30T17:44:25.477Z,47.90
2022-11-30T17:46:53.750Z,46.50
2022-11-30T17:49:22.782Z,47.30
2022-11-30T17:51:51.270Z,39.90
2022-11-30T17:54:19.491Z,37.20
2022-11-30T17:56:48.236Z,38.00
2022-11-30T17:59:16.662Z,37.00
2022-11-30T18:01:45.047Z,36.00
2022-11-30T18:04:14.005Z,35.10
2022-11-30T18:06:42.553Z,36.30
2022-11-30T18:09:11.361Z,36.90
2022-11-30T18:11:40.807Z,35.80
2022-11-30T18:14:09.216Z,34.80
2022-11-30T18:16:38.214Z,35.70
2022-11-30T18:19:12.260Z,38.50
2022-11-30T18:21:42.573Z,35.90
2022-11-30T18:24:12.363Z,33.70
2022-11-30T18:26:41.089Z,35.40
2022-11-30T18:29:10.675Z,35.20
2022-11-30T18:31:39.277Z,37.70
2022-11-30T18:34:07.923Z,36.70
2022-11-30T18:36:36.177Z,38.60
2022-11-30T18:39:05.405Z,38.40
2022-11-30T18:41:33.878Z,38.40
2022-11-30T18:44:02.110Z,37.50
2022-11-30T18:46:30.913Z,40.60
2022-11-30T18:49:00.047Z,38.40
2022-11-30T18:51:30.272Z,38.90
2022-11-30T18:54:01.514Z,37.40
2022-11-30T18:56:32.775Z,37.30
2022-11-30T18:59:04.018Z,39.50
2022-11-30T19:01:33.030Z,40.50
2022-11-30T19:04:04.624Z,38.40
2022-11-30T19:06:33.354Z,42.20
2022-11-30T19:09:10.271Z,32.30
2022-11-30T19:11:39.918Z,38.60
2022-11-30T19:14:10.344Z,40.80
2022-11-30T19:16:38.871Z,37.00
2022-11-30T19:19:08.612Z,39.00
2022-11-30T19:21:36.816Z,39.30
2022-11-30T19:24:05.577Z,44.20
2022-11-30T19:26:34.398Z,36.70
2022-11-30T19:29:02.609Z,35.30
2022-11-30T19:31:31.047Z,39.70
2022-11-30T19:33:59.894Z,36.00
2022-11-30T19:36:29.424Z,37.80
2022-11-30T19:38:59.866Z,37.30
2022-11-30T19:41:28.915Z,37.70
2022-11-30T19:44:03.697Z,37.70
2022-11-30T19:46:34.649Z,38.70
2022-11-30T19:49:03.534Z,38.70
2022-11-30T19:51:32.022Z,33.70
2022-11-30T19:54:02.125Z,36.00
2022-11-30T19:56:34.827Z,36.10
2022-11-30T19:59:05.732Z,39.50
2022-11-30T20:01:34.903Z,38.80
2022-11-30T20:04:04.847Z,38.30
2022-11-30T20:06:36.410Z,37.90
2022-11-30T20:09:06.836Z,38.50
2022-11-30T20:11:35.771Z,38.60
2022-11-30T20:14:04.606Z,43.20
2022-11-30T20:16:33.983Z,38.00
2022-11-30T20:19:02.678Z,41.50
2022-11-30T20:21:33.850Z,37.30
2022-11-30T20:24:06.358Z,39.10
2022-11-30T20:26:41.234Z,41.60
2022-11-30T20:29:16.007Z,39.50
2022-11-30T20:31:47.220Z,42.90
2022-11-30T20:34:17.018Z,42.60
2022-11-30T20:36:45.981Z,43.10
2022-11-30T20:39:14.396Z,43.40
2022-11-30T20:41:42.875Z,39.90
2022-11-30T20:44:15.283Z,44.90
2022-11-30T20:46:43.948Z,40.50
2022-11-30T20:49:15.752Z,43.00
2022-11-30T20:51:45.385Z,46.00
2022-11-30T20:54:15.989Z,42.90
2022-11-30T20:56:46.845Z,47.50
2022-11-30T20:59:22.530Z,48.20
2022-11-30T21:01:50.804Z,46.50
2022-11-30T21:04:20.225Z,44.90
2022-11-30T21:06:49.063Z,41.90
2022-11-30T21:09:19.620Z,45.70
2022-11-30T21:11:49.024Z,47.50
2022-11-30T21:14:21.080Z,42.90
2022-11-30T21:16:49.506Z,42.30
2022-11-30T21:19:17.990Z,47.20
2022-11-30T21:21:46.428Z,44.30
2022-11-30T21:24:15.365Z,48.40
2022-11-30T21:26:43.981Z,43.90
2022-11-30T21:29:17.277Z,46.80
2022-11-30T21:31:46.086Z,45.90
2022-11-30T21:34:14.567Z,48.70
2022-11-30T21:36:43.137Z,48.10
2022-11-30T21:39:14.900Z,51.20
2022-11-30T21:41:43.744Z,46.40
2022-11-30T21:44:14.309Z,44.70
2022-11-30T21:46:45.848Z,49.80
2022-11-30T21:49:15.481Z,52.90
2022-11-30T21:51:44.194Z,43.20
2022-11-30T21:54:13.569Z,46.80
2022-11-30T21:56:43.804Z,49.70
2022-11-30T21:59:14.617Z,44.70
2022-11-30T22:01:43.867Z,42.50
2022-11-30T22:04:13.909Z,46.90
2022-11-30T22:06:43.263Z,42.90
2022-11-30T22:09:14.468Z,42.10
2022-11-30T22:11:45.540Z,44.40
2022-11-30T22:14:16.889Z,41.80
2022-11-30T22:16:45.864Z,39.40
2022-11-30T22:19:14.343Z,42.90
2022-11-30T22:21:49.415Z,38.20
2022-11-30T22:24:19.171Z,43.30
2022-11-30T22:26:49.328Z,44.90
2022-11-30T22:29:23.668Z,43.90
2022-11-30T22:31:54.050Z,47.20
2022-11-30T22:34:22.289Z,45.60
2022-11-30T22:36:50.537Z,48.30
2022-11-30T22:39:21.092Z,42.70
2022-11-30T22:41:55.572Z,45.20
2022-11-30T22:44:25.754Z,45.50
2022-11-30T22:46:55.150Z,40.90
2022-11-30T22:49:23.617Z,46.30
2022-11-30T22:51:52.363Z,50.70
2022-11-30T22:54:20.816Z,43.00
2022-11-30T22:56:49.051Z,43.80
2022-11-30T22:59:17.908Z,42.90
2022-11-30T23:01:48.626Z,46.70
2022-11-30T23:04:20.176Z,42.10
2022-11-30T23:06:50.225Z,41.00
2022-11-30T23:09:21.638Z,45.20
2022-11-30T23:11:51.050Z,43.70
2022-11-30T23:14:19.845Z,38.60
2022-11-30T23:16:48.575Z,40.60
2022-11-30T23:19:18.304Z,44.10
2022-11-30T23:21:46.826Z,42.10
2022-11-30T23:24:18.016Z,38.40
2022-11-30T23:26:46.624Z,42.50
2022-11-30T23:29:17.119Z,42.20
2022-11-30T23:31:46.786Z,41.60
2022-11-30T23:34:18.261Z,44.80
2022-11-30T23:36:47.240Z,40.00
2022-11-30T23:39:18.540Z,39.20
2022-11-30T23:41:47.702Z,45.30
2022-11-30T23:44:16.333Z,38.50
2022-11-30T23:46:44.907Z,43.50
2022-11-30T23:49:14.435Z,45.20
2022-11-30T23:51:42.995Z,40.20
2022-11-30T23:54:11.212Z,40.50
2022-11-30T23:56:39.982Z,36.60
2022-11-30T23:59:08.663Z,40.20
